createdAt,value
2022-10-05T00:00:20.182Z,12.20
2022-10-05T00:02:48.253Z,12.10
2022-10-05T00:05:22.215Z,12.10
2022-10-05T00:07:49.587Z,12.10
2022-10-05T00:10:18.626Z,12.10
2022-10-05T00:12:46.833Z,12.00
2022-10-05T00:15:16.633Z,12.00
2022-10-05T00:17:45.277Z,12.00
2022-10-05T00:20:20.218Z,12.00
2022-10-05T00:22:48.085Z,12.00
2022-10-05T00:25:18.159Z,12.00
2022-10-05T00:27:49.028Z,11.90
2022-10-05T00:30:18.560Z,11.90
2022-10-05T00:32:47.510Z,11.90
2022-10-05T00:35:16.674Z,11.80
2022-10-05T00:37:44.274Z,11.80
2022-10-05T00:40:22.569Z,11.80
2022-10-05T00:43:00.154Z,11.80
2022-10-05T00:45:31.363Z,11.70
2022-10-05T00:48:08.236Z,11.70
2022-10-05T00:50:49.151Z,11.60
2022-10-05T00:53:29.636Z,11.60
2022-10-05T00:56:03.452Z,11.60
2022-10-05T00:58:41.233Z,11.60
2022-10-05T01:01:13.220Z,11.60
2022-10-05T01:03:52.205Z,11.50
2022-10-05T01:06:27.030Z,11.50
2022-10-05T01:09:02.650Z,11.50
2022-10-05T01:11:36.907Z,11.50
2022-10-05T01:14:14.434Z,11.50
2022-10-05T01:16:48.686Z,11.50
2022-10-05T01:19:34.333Z,11.40
2022-10-05T01:22:08.857Z,11.40
2022-10-05T01:24:49.852Z,11.40
2022-10-05T01:27:39.073Z,11.30
2022-10-05T01:30:10.681Z,11.30
2022-10-05T01:32:44.319Z,11.40
2022-10-05T01:35:26.279Z,11.30
2022-10-05T01:38:02.280Z,11.30
2022-10-05T01:40:37.580Z,11.30
2022-10-05T01:43:17.202Z,11.30
2022-10-05T01:45:57.495Z,11.30
2022-10-05T01:48:35.552Z,11.30
2022-10-05T01:51:11.293Z,11.20
2022-10-05T01:53:49.606Z,11.20
2022-10-05T01:56:24.794Z,11.30
2022-10-05T01:59:01.479Z,11.20
2022-10-05T02:01:35.916Z,11.20
2022-10-05T02:04:07.999Z,11.20
2022-10-05T02:06:40.395Z,11.10
2022-10-05T02:09:14.449Z,11.10
2022-10-05T02:11:45.470Z,11.10
2022-10-05T02:14:20.193Z,11.10
2022-10-05T02:16:49.458Z,11.10
2022-10-05T02:19:21.649Z,11.00
2022-10-05T02:21:53.356Z,11.00
2022-10-05T02:24:24.938Z,11.00
2022-10-05T02:26:55.340Z,10.90
2022-10-05T02:29:28.174Z,10.90
2022-10-05T02:32:00.157Z,10.90
2022-10-05T02:34:29.674Z,10.80
2022-10-05T02:37:16.805Z,10.90
2022-10-05T02:39:55.949Z,10.80
2022-10-05T02:42:30.951Z,10.80
2022-10-05T02:45:09.213Z,10.80
2022-10-05T02:47:43.158Z,10.80
2022-10-05T02:50:20.585Z,10.70
2022-10-05T02:52:54.096Z,10.70
2022-10-05T02:55:30.931Z,10.70
2022-10-05T02:58:04.584Z,10.60
2022-10-05T03:00:38.827Z,10.60
2022-10-05T03:03:10.320Z,10.60
2022-10-05T03:05:42.024Z,10.60
2022-10-05T03:08:16.382Z,10.60
2022-10-05T03:10:53.898Z,10.60
2022-10-05T03:13:30.139Z,10.60
2022-10-05T03:16:12.155Z,10.50
2022-10-05T03:18:50.607Z,10.50
2022-10-05T03:21:29.306Z,10.50
2022-10-05T03:24:14.492Z,10.50
2022-10-05T03:26:49.554Z,10.50
2022-10-05T03:29:29.281Z,10.50
2022-10-05T03:32:07.743Z,10.50
2022-10-05T03:34:41.091Z,10.50
2022-10-05T03:37:16.344Z,10.50
2022-10-05T03:39:50.906Z,10.50
2022-10-05T03:42:24.466Z,10.50
2022-10-05T03:44:59.441Z,10.50
2022-10-05T03:47:39.816Z,10.60
2022-10-05T03:50:22.979Z,10.50
2022-10-05T03:52:55.961Z,10.50
2022-10-05T03:55:30.283Z,10.50
2022-10-05T03:58:15.627Z,10.50
2022-10-05T04:00:47.212Z,10.60
2022-10-05T04:03:21.964Z,10.60
2022-10-05T04:05:53.699Z,10.60
2022-10-05T04:08:26.712Z,10.60
2022-10-05T04:10:56.853Z,10.60
2022-10-05T04:13:31.992Z,10.70
2022-10-05T04:16:04.726Z,10.70
2022-10-05T04:18:36.906Z,10.70
2022-10-05T04:21:11.174Z,10.70
2022-10-05T04:23:48.052Z,10.70
2022-10-05T04:26:19.944Z,10.70
2022-10-05T04:28:54.131Z,10.70
2022-10-05T04:31:33.927Z,10.70
2022-10-05T04:34:14.695Z,10.70
2022-10-05T04:36:48.061Z,10.80
2022-10-05T04:39:23.854Z,10.80
2022-10-05T04:42:03.215Z,10.80
2022-10-05T04:44:59.992Z,10.80
2022-10-05T04:47:52.208Z,10.80
2022-10-05T04:50:33.297Z,10.80
2022-10-05T04:53:17.470Z,10.80
2022-10-05T04:55:53.897Z,10.80
2022-10-05T04:58:40.063Z,10.80
2022-10-05T05:01:26.963Z,10.80
2022-10-05T05:04:09.300Z,10.80
2022-10-05T05:06:46.443Z,10.80
2022-10-05T05:09:29.943Z,10.80
2022-10-05T05:12:11.086Z,10.80
2022-10-05T05:14:48.998Z,10.80
2022-10-05T05:17:30.540Z,10.90
2022-10-05T05:20:11.421Z,10.90
2022-10-05T05:22:47.398Z,10.90
2022-10-05T05:25:30.238Z,10.90
2022-10-05T05:28:04.581Z,10.90
2022-10-05T05:30:40.108Z,10.90
2022-10-05T05:33:17.665Z,10.90
2022-10-05T05:36:12.957Z,10.90
2022-10-05T05:38:46.882Z,10.90
2022-10-05T05:41:24.913Z,10.90
2022-10-05T05:44:04.927Z,10.90
2022-10-05T05:47:02.166Z,10.90
2022-10-05T05:49:32.233Z,11.00
2022-10-05T05:52:04.542Z,11.00
2022-10-05T05:54:38.738Z,10.90
2022-10-05T05:57:11.956Z,11.00
2022-10-05T05:59:51.818Z,11.00
2022-10-05T06:02:23.562Z,11.00
2022-10-05T06:04:54.618Z,11.10
2022-10-05T06:07:30.629Z,11.10
2022-10-05T06:10:05.591Z,11.10
2022-10-05T06:12:47.281Z,11.20
2022-10-05T06:15:28.669Z,11.10
2022-10-05T06:18:01.385Z,11.10
2022-10-05T06:20:34.303Z,11.20
2022-10-05T06:23:05.797Z,11.20
2022-10-05T06:25:44.591Z,11.20
2022-10-05T06:28:13.436Z,11.30
2022-10-05T06:30:58.282Z,11.30
2022-10-05T06:33:42.229Z,11.30
2022-10-05T06:36:20.846Z,11.30
2022-10-05T06:39:12.093Z,11.30
2022-10-05T06:41:53.955Z,11.40
2022-10-05T06:44:49.112Z,11.40
2022-10-05T06:47:44.146Z,11.50
2022-10-05T06:50:32.823Z,11.50
2022-10-05T06:53:31.811Z,11.60
2022-10-05T06:56:07.581Z,11.60
2022-10-05T06:58:46.977Z,11.70
2022-10-05T07:01:24.862Z,11.70
2022-10-05T07:04:09.571Z,11.80
2022-10-05T07:06:44.386Z,11.80
2022-10-05T07:09:26.951Z,11.90
2022-10-05T07:12:22.565Z,11.90
2022-10-05T07:15:07.753Z,12.00
2022-10-05T07:17:50.078Z,12.10
2022-10-05T07:20:26.528Z,12.10
2022-10-05T07:23:20.049Z,12.20
2022-10-05T07:25:51.712Z,12.30
2022-10-05T07:28:28.434Z,12.30
2022-10-05T07:31:03.813Z,12.40
2022-10-05T07:33:39.939Z,12.40
2022-10-05T07:36:32.725Z,12.50
2022-10-05T07:39:05.523Z,12.50
2022-10-05T07:41:40.968Z,12.60
2022-10-05T07:44:14.914Z,12.70
2022-10-05T07:46:53.400Z,12.70
2022-10-05T07:49:30.989Z,12.80
2022-10-05T07:52:00.861Z,13.00
2022-10-05T07:54:45.714Z,13.10
2022-10-05T07:57:24.169Z,13.20
2022-10-05T07:59:58.114Z,13.30
2022-10-05T08:02:34.201Z,13.40
2022-10-05T08:05:05.595Z,13.50
2022-10-05T08:07:35.939Z,13.60
2022-10-05T08:10:16.425Z,13.60
2022-10-05T08:12:58.918Z,13.70
2022-10-05T08:15:31.721Z,13.80
2022-10-05T08:18:02.355Z,13.90
2022-10-05T08:20:40.335Z,13.90
2022-10-05T08:23:17.398Z,14.00
2022-10-05T08:26:04.413Z,14.10
2022-10-05T08:28:35.705Z,14.20
2022-10-05T08:31:13.698Z,14.30
2022-10-05T08:33:53.641Z,14.30
2022-10-05T08:36:29.019Z,14.30
2022-10-05T08:38:59.514Z,14.40
2022-10-05T08:42:06.745Z,14.40
2022-10-05T08:45:16.151Z,14.50
2022-10-05T08:48:09.101Z,14.70
2022-10-05T08:51:06.585Z,14.70
2022-10-05T08:54:09.066Z,14.80
2022-10-05T08:56:42.356Z,14.80
2022-10-05T08:59:45.203Z,14.90
2022-10-05T09:02:24.601Z,15.00
2022-10-05T09:05:15.249Z,15.10
2022-10-05T09:08:03.737Z,15.10
2022-10-05T09:11:03.640Z,15.20
2022-10-05T09:13:53.142Z,15.40
2022-10-05T09:16:52.844Z,15.40
2022-10-05T09:19:44.074Z,15.40
2022-10-05T09:22:15.715Z,15.50
2022-10-05T09:24:59.249Z,15.50
2022-10-05T09:27:36.974Z,15.60
2022-10-05T09:30:14.630Z,15.60
2022-10-05T09:33:30.764Z,15.70
2022-10-05T09:36:19.453Z,15.80
2022-10-05T09:39:16.484Z,15.80
2022-10-05T09:42:17.385Z,15.90
2022-10-05T09:45:21.008Z,15.90
2022-10-05T09:48:20.179Z,15.90
2022-10-05T09:51:04.745Z,16.00
2022-10-05T09:54:11.326Z,16.00
2022-10-05T09:57:19.181Z,16.10
2022-10-05T10:00:08.636Z,16.10
2022-10-05T10:03:20.932Z,16.20
2022-10-05T10:06:10.381Z,16.30
2022-10-05T10:08:51.917Z,16.50
2022-10-05T10:11:34.159Z,16.60
2022-10-05T10:14:29.709Z,16.70
2022-10-05T10:17:17.157Z,16.80
2022-10-05T10:20:02.713Z,16.90
2022-10-05T10:22:59.835Z,17.00
2022-10-05T10:25:58.444Z,17.20
2022-10-05T10:28:54.771Z,17.30
2022-10-05T10:31:44.903Z,17.40
2022-10-05T10:34:41.759Z,17.50
2022-10-05T10:37:39.088Z,17.60
2022-10-05T10:40:36.731Z,17.60
2022-10-05T10:43:29.775Z,17.70
2022-10-05T10:46:06.952Z,17.80
2022-10-05T10:49:01.433Z,17.80
2022-10-05T10:51:57.334Z,17.90
2022-10-05T10:54:54.205Z,17.90
2022-10-05T10:57:30.309Z,17.90
2022-10-05T11:00:22.294Z,18.00
2022-10-05T11:03:14.403Z,18.00
2022-10-05T11:06:11.797Z,18.10
2022-10-05T11:09:03.611Z,18.20
2022-10-05T11:11:57.639Z,18.30
2022-10-05T11:14:38.538Z,18.40
2022-10-05T11:17:29.410Z,18.50
2022-10-05T11:20:14.530Z,18.70
2022-10-05T11:22:55.958Z,18.80
2022-10-05T11:25:50.665Z,18.90
2022-10-05T11:28:37.635Z,19.00
2022-10-05T11:31:54.092Z,19.10
2022-10-05T11:34:38.379Z,19.20
2022-10-05T11:37:43.736Z,19.40
2022-10-05T11:40:49.519Z,19.50
2022-10-05T11:43:49.870Z,19.60
2022-10-05T11:46:22.402Z,19.90
2022-10-05T11:49:07.081Z,20.20
2022-10-05T11:51:43.265Z,20.40
2022-10-05T11:54:29.537Z,20.50
2022-10-05T11:57:02.190Z,20.60
2022-10-05T11:59:35.220Z,20.70
2022-10-05T12:02:17.311Z,20.70
2022-10-05T12:04:50.889Z,20.60
2022-10-05T12:07:25.730Z,20.60
2022-10-05T12:10:17.397Z,20.60
2022-10-05T12:13:01.510Z,20.50
2022-10-05T12:15:36.489Z,20.40
2022-10-05T12:18:13.434Z,20.50
2022-10-05T12:20:46.341Z,20.40
2022-10-05T12:23:19.790Z,20.50
2022-10-05T12:25:53.773Z,20.60
2022-10-05T12:28:32.549Z,20.70
2022-10-05T12:31:13.177Z,20.70
2022-10-05T12:33:46.386Z,20.70
2022-10-05T12:36:19.302Z,20.70
2022-10-05T12:38:53.152Z,20.80
2022-10-05T12:41:26.383Z,20.70
2022-10-05T12:44:11.364Z,20.70
2022-10-05T12:46:45.326Z,20.80
2022-10-05T12:49:33.270Z,20.80
2022-10-05T12:52:04.107Z,20.70
2022-10-05T12:54:44.678Z,20.80
2022-10-05T12:57:22.738Z,20.80
2022-10-05T13:00:00.082Z,20.90
2022-10-05T13:02:36.743Z,21.00
2022-10-05T13:05:18.464Z,21.20
2022-10-05T13:08:07.997Z,21.50
2022-10-05T13:10:39.336Z,21.70
2022-10-05T13:13:20.805Z,21.90
2022-10-05T13:15:53.899Z,22.10
2022-10-05T13:18:29.847Z,22.20
2022-10-05T13:21:04.551Z,22.40
2022-10-05T13:23:46.043Z,22.50
2022-10-05T13:26:18.980Z,22.60
2022-10-05T13:28:57.284Z,22.70
2022-10-05T13:31:30.489Z,23.00
2022-10-05T13:34:05.947Z,23.20
2022-10-05T13:36:46.348Z,23.40
2022-10-05T13:39:24.789Z,23.60
2022-10-05T13:41:59.916Z,23.90
2022-10-05T13:44:34.991Z,24.30
2022-10-05T13:47:08.832Z,24.70
2022-10-05T13:49:43.157Z,25.00
2022-10-05T13:52:21.681Z,25.40
2022-10-05T13:54:58.062Z,25.70
2022-10-05T13:57:45.090Z,25.90
2022-10-05T14:00:21.390Z,26.20
2022-10-05T14:02:57.452Z,26.40
2022-10-05T14:05:27.124Z,26.50
2022-10-05T14:07:56.932Z,26.70
2022-10-05T14:10:37.509Z,26.80
2022-10-05T14:13:20.898Z,26.70
2022-10-05T14:16:06.205Z,26.70
2022-10-05T14:18:38.082Z,26.50
2022-10-05T14:21:18.556Z,26.30
2022-10-05T14:23:45.967Z,26.20
2022-10-05T14:26:20.718Z,26.10
2022-10-05T14:28:58.979Z,25.80
2022-10-05T14:31:32.949Z,25.40
2022-10-05T14:34:29.298Z,25.10
2022-10-05T14:37:00.396Z,24.90
2022-10-05T14:39:30.927Z,24.40
2022-10-05T14:42:13.268Z,23.90
2022-10-05T14:44:40.860Z,23.70
2022-10-05T14:47:20.956Z,23.50
2022-10-05T14:50:13.244Z,23.40
2022-10-05T14:52:41.218Z,23.40
2022-10-05T14:55:23.744Z,23.10
2022-10-05T14:58:03.231Z,23.00
2022-10-05T15:00:38.365Z,22.70
2022-10-05T15:03:35.662Z,22.60
2022-10-05T15:06:15.512Z,22.40
2022-10-05T15:08:56.769Z,22.10
2022-10-05T15:11:34.587Z,22.00
2022-10-05T15:14:06.134Z,21.70
2022-10-05T15:16:35.627Z,21.60
2022-10-05T15:19:13.831Z,21.40
2022-10-05T15:21:55.991Z,21.30
2022-10-05T15:24:27.993Z,21.20
2022-10-05T15:26:58.269Z,21.00
2022-10-05T15:29:49.846Z,20.90
2022-10-05T15:32:28.861Z,20.80
2022-10-05T15:35:10.742Z,20.70
2022-10-05T15:37:43.761Z,20.60
2022-10-05T15:40:20.482Z,20.50
2022-10-05T15:42:52.677Z,20.40
2022-10-05T15:45:29.968Z,20.20
2022-10-05T15:48:01.819Z,20.10
2022-10-05T15:50:35.155Z,20.00
2022-10-05T15:53:16.355Z,19.90
2022-10-05T15:55:50.790Z,19.80
2022-10-05T15:58:31.266Z,19.80
2022-10-05T16:01:05.228Z,19.80
2022-10-05T16:03:45.686Z,19.60
2022-10-05T16:06:43.070Z,19.60
2022-10-05T16:09:24.621Z,19.60
2022-10-05T16:12:02.443Z,19.40
2022-10-05T16:14:39.566Z,19.40
2022-10-05T16:17:20.972Z,19.30
2022-10-05T16:20:05.391Z,19.30
2022-10-05T16:22:43.544Z,19.20
2022-10-05T16:25:25.799Z,19.10
2022-10-05T16:28:13.325Z,19.10
2022-10-05T16:30:54.349Z,19.00
2022-10-05T16:33:38.276Z,18.90
2022-10-05T16:36:19.922Z,18.90
2022-10-05T16:39:02.823Z,18.80
2022-10-05T16:41:44.570Z,18.70
2022-10-05T16:44:23.711Z,18.70
2022-10-05T16:47:01.579Z,18.60
2022-10-05T16:49:45.559Z,18.50
2022-10-05T16:52:22.076Z,18.50
2022-10-05T16:54:58.231Z,18.40
2022-10-05T16:57:37.037Z,18.40
2022-10-05T17:00:18.597Z,18.30
2022-10-05T17:03:12.717Z,18.20
2022-10-05T17:06:36.685Z,18.20
2022-10-05T17:09:39.692Z,18.10
2022-10-05T17:12:28.847Z,18.10
2022-10-05T17:15:17.817Z,18.00
2022-10-05T17:18:16.531Z,17.90
2022-10-05T17:20:58.037Z,17.80
2022-10-05T17:23:35.033Z,17.80
2022-10-05T17:26:16.615Z,17.70
2022-10-05T17:28:59.184Z,17.60
2022-10-05T17:31:31.172Z,17.50
2022-10-05T17:34:25.921Z,17.50
2022-10-05T17:36:57.833Z,17.40
2022-10-05T17:39:46.549Z,17.40
2022-10-05T17:42:46.452Z,17.30
2022-10-05T17:45:53.304Z,17.30
2022-10-05T17:48:40.218Z,17.20
2022-10-05T17:51:52.551Z,17.10
2022-10-05T17:54:41.093Z,17.00
2022-10-05T17:57:23.643Z,17.00
2022-10-05T18:00:00.507Z,16.90
2022-10-05T18:02:42.788Z,16.80
2022-10-05T18:05:25.623Z,16.80
2022-10-05T18:08:22.906Z,16.70
2022-10-05T18:11:35.281Z,16.70
2022-10-05T18:14:18.087Z,16.60
2022-10-05T18:16:59.355Z,16.50
2022-10-05T18:19:32.163Z,16.50
2022-10-05T18:22:03.491Z,16.50
2022-10-05T18:24:55.988Z,16.40
2022-10-05T18:28:00.290Z,16.30
2022-10-05T18:30:33.446Z,16.30
2022-10-05T18:33:33.938Z,16.30
2022-10-05T18:36:10.567Z,16.20
2022-10-05T18:38:51.296Z,16.20
2022-10-05T18:41:27.095Z,16.20
2022-10-05T18:44:06.308Z,16.10
2022-10-05T18:46:42.621Z,16.10
2022-10-05T18:49:26.681Z,16.00
2022-10-05T18:52:03.300Z,16.00
2022-10-05T18:54:46.979Z,16.00
2022-10-05T18:57:36.095Z,16.00
2022-10-05T19:00:12.158Z,15.90
2022-10-05T19:02:44.617Z,15.90
2022-10-05T19:05:47.580Z,15.90
2022-10-05T19:08:25.595Z,15.90
2022-10-05T19:10:57.682Z,15.90
2022-10-05T19:13:37.525Z,15.90
2022-10-05T19:16:20.126Z,15.80
2022-10-05T19:19:01.235Z,15.80
2022-10-05T19:21:35.367Z,15.80
2022-10-05T19:24:19.233Z,15.80
2022-10-05T19:27:04.052Z,15.80
2022-10-05T19:29:51.868Z,15.70
2022-10-05T19:32:30.193Z,15.70
2022-10-05T19:35:12.635Z,15.70
2022-10-05T19:37:51.576Z,15.70
2022-10-05T19:40:24.318Z,15.70
2022-10-05T19:43:07.518Z,15.70
2022-10-05T19:45:40.373Z,15.60
2022-10-05T19:48:20.798Z,15.60
2022-10-05T19:50:55.894Z,15.60
2022-10-05T19:53:26.204Z,15.60
2022-10-05T19:55:55.431Z,15.60
2022-10-05T19:58:26.711Z,15.50
2022-10-05T20:00:56.365Z,15.50
2022-10-05T20:03:29.118Z,15.50
2022-10-05T20:05:57.774Z,15.50
2022-10-05T20:08:27.072Z,15.50
2022-10-05T20:11:11.742Z,15.50
2022-10-05T20:13:42.218Z,15.40
2022-10-05T20:16:37.770Z,15.40
2022-10-05T20:19:24.258Z,15.40
2022-10-05T20:21:53.043Z,15.40
2022-10-05T20:24:23.525Z,15.40
2022-10-05T20:27:16.413Z,15.30
2022-10-05T20:29:45.262Z,15.30
2022-10-05T20:32:14.263Z,15.30
2022-10-05T20:34:43.723Z,15.30
2022-10-05T20:37:12.614Z,15.30
2022-10-05T20:39:40.954Z,15.20
2022-10-05T20:42:09.552Z,15.30
2022-10-05T20:44:37.360Z,15.20
2022-10-05T20:47:09.394Z,15.20
2022-10-05T20:49:38.368Z,15.20
2022-10-05T20:52:09.448Z,15.20
2022-10-05T20:54:37.623Z,15.20
2022-10-05T20:57:06.177Z,15.30
2022-10-05T20:59:34.268Z,15.20
2022-10-05T21:02:01.868Z,15.30
2022-10-05T21:04:40.201Z,15.20
2022-10-05T21:07:08.546Z,15.30
2022-10-05T21:09:38.314Z,15.30
2022-10-05T21:12:05.802Z,15.20
2022-10-05T21:14:34.375Z,15.20
2022-10-05T21:17:02.071Z,15.20
2022-10-05T21:19:30.851Z,15.20
2022-10-05T21:21:59.069Z,15.20
2022-10-05T21:24:26.387Z,15.20
2022-10-05T21:26:56.723Z,15.20
2022-10-05T21:29:23.955Z,15.20
2022-10-05T21:31:51.284Z,15.20
2022-10-05T21:34:18.549Z,15.20
2022-10-05T21:36:47.098Z,15.20
2022-10-05T21:39:14.285Z,15.20
2022-10-05T21:41:41.508Z,15.20
2022-10-05T21:44:08.725Z,15.20
2022-10-05T21:46:37.820Z,15.20
2022-10-05T21:49:05.786Z,15.20
2022-10-05T21:51:34.417Z,15.30
2022-10-05T21:54:08.645Z,15.30
2022-10-05T21:56:38.853Z,15.30
2022-10-05T21:59:09.593Z,15.30
2022-10-05T22:01:36.834Z,15.30
2022-10-05T22:04:04.911Z,15.40
2022-10-05T22:06:32.982Z,15.40
2022-10-05T22:09:00.409Z,15.40
2022-10-05T22:11:29.072Z,15.40
2022-10-05T22:14:02.349Z,15.40
2022-10-05T22:16:31.734Z,15.40
2022-10-05T22:19:02.285Z,15.50
2022-10-05T22:21:30.095Z,15.50
2022-10-05T22:23:57.717Z,15.50
2022-10-05T22:26:24.992Z,15.50
2022-10-05T22:28:56.384Z,15.50
2022-10-05T22:31:23.748Z,15.50
2022-10-05T22:33:51.289Z,15.50
2022-10-05T22:36:19.146Z,15.50
2022-10-05T22:38:49.365Z,15.50
2022-10-05T22:41:18.279Z,15.50
2022-10-05T22:43:48.678Z,15.50
2022-10-05T22:46:18.181Z,15.50
2022-10-05T22:48:45.491Z,15.50
2022-10-05T22:51:12.876Z,15.50
2022-10-05T22:53:40.118Z,15.60
2022-10-05T22:56:09.102Z,15.50
2022-10-05T22:58:36.508Z,15.50
2022-10-05T23:01:05.509Z,15.50
2022-10-05T23:03:34.523Z,15.50
2022-10-05T23:06:03.647Z,15.60
2022-10-05T23:08:31.763Z,15.60
2022-10-05T23:11:02.932Z,15.50
2022-10-05T23:13:30.765Z,15.50
2022-10-05T23:15:57.953Z,15.50
2022-10-05T23:18:25.843Z,15.50
2022-10-05T23:20:55.736Z,15.50
2022-10-05T23:23:23.439Z,15.50
2022-10-05T23:25:50.842Z,15.50
2022-10-05T23:28:18.102Z,15.50
2022-10-05T23:30:45.362Z,15.40
2022-10-05T23:33:12.645Z,15.40
2022-10-05T23:35:39.823Z,15.40
2022-10-05T23:38:08.500Z,15.40
2022-10-05T23:40:35.703Z,15.40
2022-10-05T23:43:02.907Z,15.40
2022-10-05T23:45:30.123Z,15.30
2022-10-05T23:47:57.299Z,15.30
2022-10-05T23:50:25.065Z,15.40
2022-10-05T23:52:52.235Z,15.40
2022-10-05T23:55:20.729Z,15.40
2022-10-05T23:57:47.990Z,15.30
